Time;durP1;ratioP1;P1;durP2;ratioP2;P2;SDS_P1;SDS_P2;PMS_P1;PMS_P2;Temp;Humidity;BMP_temperature;BMP_pressure;BME280_temperature;BME280_humidity;BME280_pressure;Samples;Min_cycle;Max_cycle;Signal;HPM_P1;HPM_P2
2023/07/31 00:00:53;;;;;;;1.50;1.00;;;17.60;98.20;;;;;;4985579;28;20472;-78
2023/07/31 00:03:20;;;;;;;1.50;1.00;;;17.60;98.20;;;;;;5022518;28;20457;-78
2023/07/31 00:05:47;;;;;;;1.50;0.90;;;17.60;98.20;;;;;;4990177;28;20461;-78
2023/07/31 00:08:14;;;;;;;1.50;0.90;;;17.60;98.20;;;;;;5007090;28;20484;-80
2023/07/31 00:10:41;;;;;;;1.50;0.90;;;17.60;98.20;;;;;;4995791;28;20460;-78
2023/07/31 00:13:07;;;;;;;1.50;1.00;;;17.60;98.20;;;;;;4999845;28;20499;-78
2023/07/31 00:15:34;;;;;;;1.50;1.00;;;17.60;98.20;;;;;;4997876;28;20469;-78
2023/07/31 00:18:03;;;;;;;1.50;0.90;;;17.60;98.20;;;;;;5012484;28;20489;-78
2023/07/31 00:20:30;;;;;;;1.50;0.90;;;17.60;98.20;;;;;;4994951;28;20493;-79
2023/07/31 00:22:57;;;;;;;1.50;1.00;;;17.60;98.20;;;;;;5018294;28;20472;-78
2023/07/31 00:25:24;;;;;;;1.50;0.90;;;17.60;98.20;;;;;;4999629;28;20467;-79
2023/07/31 00:27:51;;;;;;;1.50;1.00;;;17.60;98.20;;;;;;5014633;28;21020;-79
2023/07/31 00:30:18;;;;;;;1.50;1.00;;;17.60;98.20;;;;;;4996992;28;20556;-78
2023/07/31 00:32:45;;;;;;;1.50;0.90;;;17.70;98.20;;;;;;5018062;28;20478;-79
2023/07/31 00:35:14;;;;;;;1.50;1.00;;;17.70;98.20;;;;;;4992613;28;20461;-78
2023/07/31 00:37:40;;;;;;;1.50;0.90;;;17.70;98.20;;;;;;5000031;28;20515;-80
2023/07/31 00:40:09;;;;;;;1.50;0.90;;;17.70;98.20;;;;;;4998989;28;22605;-81
2023/07/31 00:42:35;;;;;;;1.50;0.90;;;17.70;98.20;;;;;;5002066;28;20530;-79
2023/07/31 00:45:03;;;;;;;1.50;1.00;;;17.70;98.20;;;;;;4999835;28;20986;-78
2023/07/31 00:47:30;;;;;;;1.50;1.03;;;17.70;98.20;;;;;;4998088;28;20635;-78
2023/07/31 00:49:57;;;;;;;1.50;0.90;;;17.70;98.20;;;;;;4997796;28;20459;-77
2023/07/31 00:52:25;;;;;;;1.50;0.90;;;17.70;98.20;;;;;;5003418;28;20487;-79
2023/07/31 00:54:52;;;;;;;1.50;1.00;;;17.70;98.20;;;;;;5000564;28;20547;-78
2023/07/31 00:57:19;;;;;;;1.50;1.00;;;17.70;98.20;;;;;;5005955;28;20493;-78
2023/07/31 00:59:46;;;;;;;1.50;1.00;;;17.70;98.20;;;;;;4999241;28;21140;-77
2023/07/31 01:02:13;;;;;;;1.50;1.00;;;17.70;98.20;;;;;;5003115;28;20474;-78
2023/07/31 01:04:40;;;;;;;1.50;0.90;;;17.70;98.20;;;;;;5002965;28;20464;-80
2023/07/31 01:07:14;;;;;;;1.50;1.10;;;17.70;98.20;;;;;;4996733;28;20483;-78
2023/07/31 01:09:48;;;;;;;1.50;0.90;;;17.70;98.20;;;;;;5000700;28;20472;-78
2023/07/31 01:12:16;;;;;;;1.50;0.90;;;17.80;98.20;;;;;;4992713;28;20475;-78
2023/07/31 01:14:52;;;;;;;1.60;1.10;;;17.80;98.20;;;;;;5002976;28;20485;-77
2023/07/31 01:17:19;;;;;;;1.50;1.00;;;17.70;98.20;;;;;;5009215;28;20485;-79
2023/07/31 01:19:47;;;;;;;1.50;0.90;;;17.70;98.20;;;;;;5005147;28;20525;-79
2023/07/31 01:22:31;;;;;;;1.50;0.90;;;17.70;98.20;;;;;;5002609;28;20565;-79
2023/07/31 01:25:13;;;;;;;1.50;1.00;;;17.80;98.20;;;;;;4999649;28;20773;-79
2023/07/31 01:27:47;;;;;;;1.50;0.90;;;17.70;98.20;;;;;;4998843;28;20568;-78
2023/07/31 01:30:19;;;;;;;1.50;0.90;;;17.70;98.20;;;;;;4992227;28;20557;-79
2023/07/31 01:32:48;;;;;;;1.50;0.90;;;17.80;98.20;;;;;;4998872;28;20491;-77
2023/07/31 01:35:15;;;;;;;1.50;0.90;;;17.70;98.20;;;;;;5002506;28;20978;-78
2023/07/31 01:37:42;;;;;;;1.50;0.90;;;17.70;98.20;;;;;;5005846;28;20467;-78
2023/07/31 01:40:10;;;;;;;1.50;0.90;;;17.70;98.20;;;;;;5002253;28;20457;-78
2023/07/31 01:42:37;;;;;;;1.50;1.00;;;17.70;98.20;;;;;;4997288;28;20655;-78
2023/07/31 01:45:06;;;;;;;1.50;0.90;;;17.70;98.20;;;;;;4998135;28;20452;-78
2023/07/31 01:47:33;;;;;;;1.50;0.90;;;17.70;98.20;;;;;;4999415;28;20480;-78
2023/07/31 01:49:59;;;;;;;1.50;1.00;;;17.70;98.20;;;;;;4991813;28;20483;-78
2023/07/31 01:52:26;;;;;;;1.50;0.90;;;17.70;98.20;;;;;;4997442;28;20511;-78
2023/07/31 01:54:53;;;;;;;1.50;0.90;;;17.70;98.20;;;;;;4997142;28;20493;-77
2023/07/31 01:57:20;;;;;;;1.50;0.90;;;17.80;98.20;;;;;;5000725;28;20518;-78
2023/07/31 01:59:46;;;;;;;1.50;0.90;;;17.80;98.20;;;;;;4999589;28;20999;-78
2023/07/31 02:02:15;;;;;;;1.50;1.00;;;17.80;98.20;;;;;;5004959;28;21016;-78
2023/07/31 02:04:41;;;;;;;1.50;0.90;;;17.80;98.20;;;;;;5000750;28;20457;-77
2023/07/31 02:07:08;;;;;;;1.50;0.97;;;17.80;98.20;;;;;;5002218;28;20486;-78
2023/07/31 02:09:35;;;;;;;1.50;0.90;;;17.80;98.20;;;;;;5004935;28;20882;-79
2023/07/31 02:12:08;;;;;;;1.50;1.00;;;17.80;98.20;;;;;;5002035;28;20498;-78
2023/07/31 02:14:35;;;;;;;1.50;0.93;;;17.80;98.20;;;;;;5001794;28;20481;-79
2023/07/31 02:17:01;;;;;;;1.50;1.00;;;17.80;98.20;;;;;;4999625;28;20497;-78
2023/07/31 02:19:30;;;;;;;1.50;1.00;;;17.80;98.20;;;;;;5003257;28;20694;-79
2023/07/31 02:21:56;;;;;;;1.50;1.00;;;17.80;98.20;;;;;;5000778;28;20861;-80
2023/07/31 02:24:24;;;;;;;1.50;0.97;;;17.80;98.20;;;;;;5003477;28;20481;-78
2023/07/31 02:26:50;;;;;;;1.50;0.90;;;17.80;98.20;;;;;;4996709;28;20498;-78
2023/07/31 02:29:17;;;;;;;1.50;0.97;;;17.80;98.20;;;;;;5006428;28;20484;-78
2023/07/31 02:31:44;;;;;;;1.53;1.00;;;17.80;98.20;;;;;;4990619;28;20495;-79
2023/07/31 02:34:11;;;;;;;1.50;0.90;;;17.80;98.20;;;;;;4998422;28;20867;-80
2023/07/31 02:36:39;;;;;;;1.50;0.90;;;17.80;98.20;;;;;;4994416;28;20566;-78
2023/07/31 02:39:06;;;;;;;1.50;0.90;;;17.90;98.20;;;;;;5007959;28;20465;-79
2023/07/31 02:41:32;;;;;;;1.50;0.93;;;17.90;98.20;;;;;;4994300;28;20479;-79
2023/07/31 02:43:59;;;;;;;1.50;0.90;;;17.90;98.20;;;;;;5009106;28;20461;-77
2023/07/31 02:46:26;;;;;;;1.50;1.00;;;17.90;98.20;;;;;;4985950;28;20478;-80
2023/07/31 02:48:53;;;;;;;1.50;0.90;;;17.90;98.20;;;;;;5000849;28;20465;-78
2023/07/31 02:51:21;;;;;;;1.50;1.00;;;17.90;98.20;;;;;;4986774;28;20504;-79
2023/07/31 02:53:49;;;;;;;1.50;0.90;;;17.90;98.20;;;;;;4999440;28;21059;-77
2023/07/31 02:56:16;;;;;;;1.50;1.00;;;17.90;98.20;;;;;;4989856;28;20488;-78
2023/07/31 02:58:43;;;;;;;1.50;1.00;;;17.90;98.20;;;;;;5001789;28;20471;-79
2023/07/31 03:01:09;;;;;;;1.50;0.90;;;17.90;98.20;;;;;;4985307;28;20487;-78
2023/07/31 03:03:36;;;;;;;1.50;0.90;;;18.00;98.20;;;;;;5007049;28;20457;-80
2023/07/31 03:06:03;;;;;;;1.50;0.90;;;18.00;98.20;;;;;;4983096;28;20471;-78
2023/07/31 03:08:30;;;;;;;1.50;0.90;;;18.00;98.20;;;;;;5004197;28;21003;-78
2023/07/31 03:10:59;;;;;;;1.50;0.90;;;18.00;98.20;;;;;;4982924;28;20543;-78
2023/07/31 03:13:26;;;;;;;1.50;0.90;;;18.00;98.20;;;;;;5007651;28;20464;-80
2023/07/31 03:15:53;;;;;;;1.50;1.00;;;18.00;98.20;;;;;;4981001;28;20471;-79
2023/07/31 03:18:19;;;;;;;1.50;0.90;;;18.00;98.20;;;;;;5017491;28;20481;-78
2023/07/31 03:20:46;;;;;;;1.50;0.90;;;18.00;98.20;;;;;;4985171;28;20859;-78
2023/07/31 03:23:13;;;;;;;1.50;0.90;;;18.00;98.20;;;;;;5007101;28;20996;-79
2023/07/31 03:25:40;;;;;;;1.50;1.00;;;18.00;98.20;;;;;;4990209;28;20500;-79
2023/07/31 03:28:08;;;;;;;1.50;0.90;;;18.00;98.20;;;;;;4999983;28;20503;-78
2023/07/31 03:30:38;;;;;;;1.57;1.10;;;18.10;98.20;;;;;;4990555;28;20461;-78
2023/07/31 03:33:04;;;;;;;1.50;1.00;;;18.10;98.20;;;;;;4995208;28;20527;-78
2023/07/31 03:35:31;;;;;;;1.50;1.00;;;18.10;98.20;;;;;;4994764;28;20901;-79
2023/07/31 03:37:58;;;;;;;1.53;1.00;;;18.00;98.20;;;;;;4998021;28;20492;-77
2023/07/31 03:40:25;;;;;;;1.50;0.90;;;18.10;98.20;;;;;;4999789;28;20458;-77
2023/07/31 03:42:51;;;;;;;1.50;1.00;;;18.00;98.20;;;;;;4998117;28;20484;-79
2023/07/31 03:45:19;;;;;;;1.50;1.00;;;18.00;98.20;;;;;;4992181;28;20453;-79
2023/07/31 03:47:46;;;;;;;1.50;0.90;;;18.00;98.20;;;;;;5008415;28;21020;-79
2023/07/31 03:50:13;;;;;;;1.50;0.90;;;18.00;98.20;;;;;;4987091;28;20885;-77
2023/07/31 03:52:40;;;;;;;1.50;0.97;;;18.00;98.20;;;;;;4996374;28;20526;-78
2023/07/31 03:55:07;;;;;;;1.50;1.10;;;18.00;98.20;;;;;;5009425;23;20497;-83
2023/07/31 03:57:33;;;;;;;1.50;0.97;;;18.00;98.20;;;;;;4987005;28;20484;-82
2023/07/31 04:00:00;;;;;;;1.50;0.90;;;17.90;98.20;;;;;;4981989;28;20549;-82
2023/07/31 04:02:28;;;;;;;1.50;0.90;;;18.00;98.20;;;;;;4984795;28;21025;-82
2023/07/31 04:04:55;;;;;;;1.50;1.00;;;18.00;98.20;;;;;;5000423;28;20481;-83
2023/07/31 04:07:22;;;;;;;1.50;1.00;;;17.90;98.20;;;;;;4997762;28;20571;-82
2023/07/31 04:09:48;;;;;;;1.50;0.90;;;17.90;98.20;;;;;;5003269;28;20474;-82
2023/07/31 04:12:16;;;;;;;1.53;1.00;;;17.90;98.20;;;;;;5005288;28;20496;-84
2023/07/31 04:14:43;;;;;;;1.50;0.90;;;17.90;98.20;;;;;;5006569;28;20576;-82
2023/07/31 04:17:09;;;;;;;1.50;1.10;;;18.00;98.20;;;;;;4998389;28;20489;-82
2023/07/31 04:19:37;;;;;;;1.43;0.90;;;18.00;98.20;;;;;;5003198;28;20523;-82
2023/07/31 04:22:05;;;;;;;1.50;1.00;;;18.00;98.20;;;;;;5003702;28;20488;-83
2023/07/31 04:24:31;;;;;;;1.50;1.03;;;18.00;98.20;;;;;;5008990;28;20472;-83
2023/07/31 04:26:58;;;;;;;1.50;0.90;;;18.00;98.20;;;;;;4999943;28;20859;-82
2023/07/31 04:29:25;;;;;;;1.50;0.90;;;18.00;98.20;;;;;;5007061;28;20866;-82
2023/07/31 04:31:52;;;;;;;1.57;1.00;;;18.00;98.20;;;;;;4994532;28;20891;-82
2023/07/31 04:34:18;;;;;;;1.60;1.10;;;18.00;98.20;;;;;;5007224;28;20487;-82
2023/07/31 04:36:47;;;;;;;1.50;0.90;;;18.00;98.20;;;;;;4996321;28;20489;-83
2023/07/31 04:39:14;;;;;;;1.50;0.90;;;18.00;98.20;;;;;;5013151;28;20488;-82
2023/07/31 04:41:40;;;;;;;1.50;1.00;;;18.00;98.20;;;;;;5004424;28;20492;-83
2023/07/31 04:44:07;;;;;;;1.50;0.97;;;18.00;98.20;;;;;;5012055;28;21481;-82
2023/07/31 04:46:34;;;;;;;1.50;0.90;;;18.00;98.20;;;;;;4996252;28;20480;-82
2023/07/31 04:49:02;;;;;;;1.50;0.90;;;18.00;98.20;;;;;;5024200;28;20457;-82
2023/07/31 04:51:29;;;;;;;1.50;1.00;;;18.00;98.20;;;;;;4995269;28;20535;-82
2023/07/31 04:53:57;;;;;;;1.50;0.90;;;18.00;98.20;;;;;;5009979;28;20568;-83
2023/07/31 04:56:24;;;;;;;1.50;0.90;;;18.00;98.20;;;;;;5001101;28;20571;-83
2023/07/31 04:58:51;;;;;;;2.67;1.47;;;18.10;98.20;;;;;;5012686;28;20522;-82
2023/07/31 05:01:18;;;;;;;1.50;1.00;;;18.10;98.20;;;;;;5000355;28;20471;-82
2023/07/31 05:03:45;;;;;;;1.50;1.10;;;18.20;98.20;;;;;;5016363;28;20452;-82
2023/07/31 05:06:12;;;;;;;1.50;1.00;;;18.20;98.20;;;;;;5003323;28;20486;-83
2023/07/31 05:08:39;;;;;;;1.50;0.90;;;18.20;98.20;;;;;;5023279;28;20487;-82
2023/07/31 05:11:07;;;;;;;1.50;0.90;;;18.30;98.20;;;;;;5005279;28;20471;-82
2023/07/31 05:13:33;;;;;;;1.50;1.00;;;18.30;98.20;;;;;;5025910;28;20546;-81
2023/07/31 05:16:00;;;;;;;1.53;0.90;;;18.40;98.20;;;;;;4993783;28;20658;-82
2023/07/31 05:18:27;;;;;;;1.53;1.00;;;18.40;98.20;;;;;;5007355;28;20463;-83
2023/07/31 05:21:03;;;;;;;1.50;1.00;;;18.40;98.20;;;;;;5001781;28;20457;-82
2023/07/31 05:23:32;;;;;;;1.57;1.00;;;18.40;98.20;;;;;;4999411;28;20599;-82
2023/07/31 05:26:04;;;;;;;1.50;0.97;;;18.50;98.20;;;;;;4988934;28;20503;-82
2023/07/31 05:28:32;;;;;;;1.50;0.90;;;18.50;98.20;;;;;;5011377;28;20469;-82
2023/07/31 05:31:00;;;;;;;1.50;0.90;;;18.50;98.20;;;;;;4993018;28;20484;-82
2023/07/31 05:33:27;;;;;;;1.57;0.97;;;18.50;98.20;;;;;;5007739;28;20467;-82
2023/07/31 05:35:54;;;;;;;1.50;0.90;;;18.60;98.20;;;;;;4995933;28;20492;-82
2023/07/31 05:38:21;;;;;;;1.53;0.90;;;18.60;98.20;;;;;;5010113;28;20466;-82
2023/07/31 05:40:48;;;;;;;1.50;0.90;;;18.60;98.20;;;;;;4993247;28;20462;-83
2023/07/31 05:43:18;;;;;;;1.50;1.00;;;18.70;98.20;;;;;;5015607;28;20559;-81
2023/07/31 05:45:46;;;;;;;1.50;0.90;;;18.70;98.20;;;;;;5007294;28;20498;-83
2023/07/31 05:48:13;;;;;;;1.60;1.20;;;18.70;98.20;;;;;;4982737;28;20481;-83
2023/07/31 05:50:40;;;;;;;1.50;0.90;;;18.70;98.20;;;;;;4999954;28;20482;-83
2023/07/31 05:53:08;;;;;;;1.50;0.90;;;18.70;98.20;;;;;;5004821;28;20485;-83
2023/07/31 05:55:35;;;;;;;1.50;1.00;;;18.70;98.20;;;;;;5004424;28;20492;-83
2023/07/31 05:58:02;;;;;;;1.50;0.97;;;18.70;98.20;;;;;;4996454;28;20491;-83
2023/07/31 06:00:29;;;;;;;1.50;0.90;;;18.70;98.20;;;;;;5006185;28;20460;-84
2023/07/31 06:02:57;;;;;;;1.50;0.90;;;18.70;98.20;;;;;;5003584;28;20487;-86
2023/07/31 06:08:16;;;;;;;1.50;0.90;;;18.60;98.20;;;;;;4966279;28;20485;-85
2023/07/31 06:10:46;;;;;;;1.57;1.00;;;18.60;98.20;;;;;;4995884;28;20484;-85
2023/07/31 06:13:46;;;;;;;1.57;0.90;;;18.50;98.20;;;;;;4973145;28;20495;-85
2023/07/31 06:16:13;;;;;;;1.50;1.00;;;18.50;98.20;;;;;;4992800;28;20474;-85
2023/07/31 06:18:44;;;;;;;1.50;0.90;;;18.40;98.20;;;;;;5010217;28;20841;-85
2023/07/31 06:21:29;;;;;;;1.50;0.90;;;18.40;98.20;;;;;;4992371;28;20862;-85
2023/07/31 06:23:56;;;;;;;1.53;1.00;;;18.40;98.20;;;;;;5007891;28;20465;-84
2023/07/31 06:26:23;;;;;;;1.50;1.00;;;18.40;98.20;;;;;;4991483;28;21021;-84
2023/07/31 06:28:50;;;;;;;1.50;0.90;;;18.40;98.20;;;;;;5009676;28;20743;-86
2023/07/31 06:31:20;;;;;;;1.50;1.00;;;18.40;98.20;;;;;;4993703;28;21023;-85
2023/07/31 06:33:48;;;;;;;1.50;0.90;;;18.40;98.20;;;;;;5008377;28;20553;-85
2023/07/31 06:36:15;;;;;;;1.50;0.90;;;18.50;98.20;;;;;;4989667;28;20566;-85
2023/07/31 06:38:42;;;;;;;1.50;1.00;;;18.50;98.20;;;;;;4999824;28;20871;-84
2023/07/31 06:41:10;;;;;;;1.50;0.90;;;18.50;98.20;;;;;;4986199;28;20931;-83
2023/07/31 06:43:37;;;;;;;1.50;0.97;;;18.60;98.20;;;;;;5005056;28;20720;-84
2023/07/31 06:46:06;;;;;;;1.50;0.90;;;18.60;98.20;;;;;;4988772;28;20480;-82
2023/07/31 06:48:33;;;;;;;1.50;0.90;;;18.70;98.20;;;;;;5010224;28;20848;-83
2023/07/31 06:51:01;;;;;;;1.50;0.90;;;18.70;98.20;;;;;;4993426;28;20461;-82
2023/07/31 06:53:29;;;;;;;1.50;1.00;;;18.70;98.20;;;;;;5028346;28;20461;-84
2023/07/31 06:55:56;;;;;;;1.50;0.90;;;18.80;98.20;;;;;;4996619;28;20496;-82
2023/07/31 06:58:23;;;;;;;1.50;0.90;;;18.80;98.20;;;;;;5013524;28;20465;-82
2023/07/31 07:00:50;;;;;;;1.50;0.90;;;18.80;98.20;;;;;;4988198;28;20467;-82
2023/07/31 07:03:19;;;;;;;1.60;1.00;;;18.90;98.20;;;;;;5011429;28;20638;-83
2023/07/31 07:05:45;;;;;;;1.50;0.90;;;18.90;98.20;;;;;;5003401;28;20476;-83
2023/07/31 07:08:14;;;;;;;1.50;1.00;;;18.90;98.20;;;;;;4972592;28;20476;-84
2023/07/31 07:10:40;;;;;;;1.50;0.90;;;18.90;98.20;;;;;;4998976;28;21002;-83
2023/07/31 07:13:07;;;;;;;1.50;1.00;;;18.90;98.20;;;;;;5000936;28;20484;-83
2023/07/31 07:15:34;;;;;;;1.70;1.20;;;19.00;98.20;;;;;;4999369;28;20555;-83
2023/07/31 07:18:01;;;;;;;1.53;1.00;;;19.00;98.20;;;;;;4998655;28;20507;-83
2023/07/31 07:20:28;;;;;;;1.50;1.00;;;19.00;98.20;;;;;;4996078;28;20465;-83
2023/07/31 07:22:54;;;;;;;1.50;0.90;;;19.00;98.20;;;;;;4991421;28;20488;-83
2023/07/31 07:25:22;;;;;;;1.50;0.90;;;19.00;98.20;;;;;;4996264;28;20473;-84
2023/07/31 07:30:30;;;;;;;1.50;0.90;;;19.00;98.20;;;;;;5000256;28;20471;-85
2023/07/31 07:32:57;;;;;;;1.50;0.97;;;19.00;98.20;;;;;;5005203;28;20483;-85
2023/07/31 07:35:28;;;;;;;1.50;1.00;;;18.90;98.20;;;;;;4999087;28;20492;-85
2023/07/31 07:37:56;;;;;;;1.50;1.00;;;18.80;98.20;;;;;;4995420;28;20554;-86
2023/07/31 07:40:24;;;;;;;1.50;0.90;;;18.80;98.20;;;;;;4992588;28;20472;-86
2023/07/31 07:42:51;;;;;;;1.50;0.90;;;18.80;98.20;;;;;;4997172;28;20496;-86
2023/07/31 07:45:21;;;;;;;1.50;0.90;;;18.70;98.20;;;;;;4993601;28;20480;-86
2023/07/31 07:47:48;;;;;;;1.50;1.00;;;18.70;98.20;;;;;;4987680;28;20498;-86
2023/07/31 07:50:15;;;;;;;1.50;0.90;;;18.70;98.20;;;;;;4993140;28;20468;-87
2023/07/31 07:52:42;;;;;;;1.50;1.00;;;18.70;98.20;;;;;;4998862;28;20483;-85
2023/07/31 07:55:21;;;;;;;1.50;0.90;;;18.70;98.20;;;;;;4996098;28;20495;-87
2023/07/31 07:57:50;;;;;;;1.50;0.90;;;18.70;98.20;;;;;;5015527;28;20491;-86
2023/07/31 08:00:22;;;;;;;1.50;1.00;;;18.70;98.20;;;;;;5003806;28;20463;-86
2023/07/31 08:02:49;;;;;;;1.50;0.90;;;18.70;98.20;;;;;;5016855;28;20503;-86
2023/07/31 08:05:18;;;;;;;1.50;0.90;;;18.70;98.20;;;;;;4999964;28;20847;-88
2023/07/31 08:07:46;;;;;;;1.50;0.90;;;18.70;98.20;;;;;;5017391;28;21052;-85
2023/07/31 08:10:13;;;;;;;1.50;0.90;;;18.60;98.20;;;;;;4990251;28;20471;-84
2023/07/31 08:12:40;;;;;;;1.50;0.90;;;18.60;98.20;;;;;;4994746;28;20970;-84
2023/07/31 08:15:09;;;;;;;1.50;0.90;;;18.50;98.20;;;;;;4995643;28;20994;-84
2023/07/31 08:17:36;;;;;;;1.50;0.90;;;18.50;98.20;;;;;;4994571;28;20566;-83
2023/07/31 08:20:04;;;;;;;1.50;0.90;;;18.50;98.20;;;;;;4998588;28;20464;-83
2023/07/31 08:22:32;;;;;;;1.70;1.07;;;18.60;98.20;;;;;;4996484;28;20563;-83
2023/07/31 08:24:59;;;;;;;1.50;0.90;;;18.60;98.20;;;;;;4996404;28;20489;-83
2023/07/31 08:27:26;;;;;;;1.57;1.00;;;18.60;98.20;;;;;;4996053;28;20535;-82
2023/07/31 08:29:53;;;;;;;1.50;0.90;;;18.60;98.20;;;;;;4995749;28;21190;-82
2023/07/31 08:32:21;;;;;;;1.50;1.00;;;18.70;98.20;;;;;;4995418;28;20488;-84
2023/07/31 08:34:49;;;;;;;1.50;0.90;;;18.80;98.20;;;;;;5002363;28;20488;-82
2023/07/31 08:37:16;;;;;;;1.50;0.90;;;18.90;98.20;;;;;;4978356;28;20481;-81
2023/07/31 08:39:43;;;;;;;1.50;0.90;;;19.00;98.20;;;;;;4988924;28;21037;-82
2023/07/31 08:42:10;;;;;;;1.53;0.90;;;19.10;98.20;;;;;;4996489;28;20483;-84
2023/07/31 08:44:38;;;;;;;1.50;1.00;;;19.20;98.20;;;;;;5000638;28;20487;-83
2023/07/31 08:47:06;;;;;;;1.50;1.00;;;19.30;98.20;;;;;;4996055;28;20488;-84
2023/07/31 08:49:35;;;;;;;1.50;0.90;;;19.30;98.20;;;;;;5002792;28;20492;-84
2023/07/31 08:52:03;;;;;;;1.50;0.90;;;19.40;98.20;;;;;;4998258;28;20491;-83
2023/07/31 08:54:32;;;;;;;1.50;0.90;;;19.50;98.20;;;;;;5000564;28;20481;-83
2023/07/31 08:56:59;;;;;;;1.50;0.90;;;19.50;98.20;;;;;;4995949;28;20492;-84
2023/07/31 08:59:30;;;;;;;1.50;0.90;;;19.50;98.20;;;;;;5002767;28;20567;-84
2023/07/31 09:01:58;;;;;;;1.50;1.00;;;19.50;98.20;;;;;;4997184;28;20476;-85
2023/07/31 09:04:27;;;;;;;1.50;0.93;;;19.50;98.20;;;;;;5003502;28;20476;-83
2023/07/31 09:07:00;;;;;;;1.50;1.00;;;19.50;98.20;;;;;;5009524;28;20467;-84
2023/07/31 09:09:27;;;;;;;1.50;1.00;;;19.50;98.20;;;;;;5010895;28;20468;-83
2023/07/31 09:11:56;;;;;;;1.50;0.90;;;19.40;98.20;;;;;;4997310;28;20483;-83
2023/07/31 09:14:23;;;;;;;1.50;1.00;;;19.40;98.20;;;;;;5002220;28;20463;-83
2023/07/31 09:16:54;;;;;;;1.50;0.90;;;19.30;98.20;;;;;;4993304;28;20892;-83
2023/07/31 09:19:30;;;;;;;1.50;1.00;;;19.30;98.20;;;;;;5003922;28;20510;-85
2023/07/31 09:21:58;;;;;;;1.50;0.90;;;19.20;98.20;;;;;;4977760;28;20509;-86
2023/07/31 09:24:31;;;;;;;1.53;0.90;;;19.20;98.20;;;;;;4988395;28;21109;-84
2023/07/31 09:27:00;;;;;;;1.53;1.00;;;19.20;98.20;;;;;;4995334;28;20530;-85
2023/07/31 09:29:28;;;;;;;1.53;0.90;;;19.20;98.20;;;;;;4997634;28;20532;-84
2023/07/31 09:31:55;;;;;;;1.57;1.00;;;19.30;98.20;;;;;;4996003;28;20992;-83
2023/07/31 09:34:30;;;;;;;1.50;0.90;;;19.40;98.20;;;;;;5001814;28;20461;-84
2023/07/31 09:37:02;;;;;;;1.50;0.90;;;19.50;98.20;;;;;;4994129;28;20614;-83
2023/07/31 09:39:31;;;;;;;1.50;0.90;;;19.60;98.20;;;;;;4996674;28;20468;-82
2023/07/31 09:41:58;;;;;;;1.50;0.90;;;19.70;98.20;;;;;;4992768;28;20534;-82
2023/07/31 09:44:40;;;;;;;1.50;0.90;;;19.70;98.20;;;;;;5000523;28;20465;-82
2023/07/31 09:47:07;;;;;;;1.50;0.90;;;19.70;98.20;;;;;;4987962;28;20488;-83
2023/07/31 09:49:34;;;;;;;1.50;1.00;;;19.70;98.20;;;;;;4999253;28;20596;-84
2023/07/31 09:52:13;;;;;;;1.50;0.90;;;19.80;98.20;;;;;;4997906;28;20554;-84
2023/07/31 09:54:40;;;;;;;1.50;0.90;;;19.70;98.20;;;;;;4997616;28;20500;-86
2023/07/31 09:57:09;;;;;;;1.50;0.97;;;19.80;98.20;;;;;;4993967;28;20491;-85
2023/07/31 09:59:37;;;;;;;1.50;0.90;;;19.80;98.20;;;;;;4999157;28;20472;-83
2023/07/31 10:02:04;;;;;;;1.50;0.90;;;19.90;98.20;;;;;;4991035;28;20484;-85
2023/07/31 10:07:09;;;;;;;1.50;0.90;;;20.00;98.20;;;;;;5386609;23;20529;-77
2023/07/31 10:09:47;;;;;;;1.50;0.90;;;20.10;98.20;;;;;;4998074;28;20870;-77
2023/07/31 10:12:17;;;;;;;2.23;1.87;;;20.20;98.20;;;;;;4987026;28;20614;-77
2023/07/31 10:14:45;;;;;;;1.53;0.90;;;20.20;98.20;;;;;;5005335;28;20464;-76
2023/07/31 10:17:13;;;;;;;1.50;0.90;;;20.20;98.20;;;;;;4991831;28;20475;-77
2023/07/31 10:19:41;;;;;;;1.50;0.90;;;20.20;98.20;;;;;;4988509;28;20571;-76
2023/07/31 10:22:12;;;;;;;1.50;0.90;;;20.20;98.20;;;;;;4983575;28;20488;-76
2023/07/31 10:24:41;;;;;;;1.50;0.93;;;20.20;98.20;;;;;;4989004;28;20460;-76
2023/07/31 10:27:09;;;;;;;1.50;0.90;;;20.20;98.20;;;;;;4977921;28;20507;-77
2023/07/31 10:29:37;;;;;;;1.50;0.90;;;20.20;98.20;;;;;;4982597;28;20460;-77
2023/07/31 10:32:10;;;;;;;1.53;1.00;;;20.30;98.20;;;;;;4966367;28;20494;-78
2023/07/31 10:34:38;;;;;;;1.50;0.90;;;20.40;98.20;;;;;;4983210;28;20464;-77
2023/07/31 10:37:29;;;;;;;1.50;0.90;;;20.50;98.20;;;;;;4986666;28;20485;-77
2023/07/31 10:40:02;;;;;;;1.50;0.90;;;20.60;98.20;;;;;;4984944;28;20768;-77
2023/07/31 10:42:31;;;;;;;1.57;0.90;;;20.90;98.20;;;;;;4980954;28;20523;-77
2023/07/31 10:44:59;;;;;;;1.50;0.90;;;21.10;98.20;;;;;;4987464;28;20461;-77
2023/07/31 10:47:26;;;;;;;1.50;0.90;;;21.20;98.20;;;;;;4988526;28;21072;-79
2023/07/31 10:49:53;;;;;;;1.57;0.90;;;21.30;98.20;;;;;;4986713;28;20470;-76
2023/07/31 10:52:23;;;;;;;1.50;0.90;;;21.30;98.20;;;;;;4987769;28;20489;-77
2023/07/31 10:55:11;;;;;;;1.50;0.87;;;21.30;98.20;;;;;;4990844;28;20460;-77
2023/07/31 10:57:38;;;;;;;1.50;0.90;;;21.30;98.20;;;;;;4975893;28;20860;-78
2023/07/31 11:00:20;;;;;;;1.50;0.90;;;21.40;98.20;;;;;;4988874;28;21149;-79
2023/07/31 11:02:58;;;;;;;1.53;0.90;;;21.50;98.20;;;;;;4974306;28;20485;-79
2023/07/31 11:05:42;;;;;;;1.50;0.90;;;21.60;98.20;;;;;;4990581;28;20461;-80
2023/07/31 11:08:14;;;;;;;1.50;0.80;;;21.70;98.20;;;;;;4993462;28;20479;-78
2023/07/31 11:10:43;;;;;;;1.53;0.90;;;21.80;98.20;;;;;;4984157;28;20460;-78
2023/07/31 11:13:10;;;;;;;1.50;0.90;;;21.80;98.20;;;;;;4994321;28;20572;-78
2023/07/31 11:15:37;;;;;;;1.53;0.90;;;21.90;98.20;;;;;;4990489;28;20464;-79
2023/07/31 11:18:05;;;;;;;1.50;0.90;;;22.10;98.20;;;;;;4989496;28;20480;-77
2023/07/31 11:20:33;;;;;;;1.53;0.90;;;22.20;98.20;;;;;;4988308;28;20473;-79
2023/07/31 11:23:02;;;;;;;1.50;0.90;;;22.30;98.20;;;;;;4984106;28;20557;-78
2023/07/31 11:25:30;;;;;;;1.50;0.90;;;22.30;98.20;;;;;;4990479;28;20465;-79
2023/07/31 11:28:02;;;;;;;1.50;0.90;;;22.40;98.20;;;;;;4979948;28;21027;-79
2023/07/31 11:30:29;;;;;;;1.50;0.83;;;22.30;98.20;;;;;;4979910;28;20458;-78
2023/07/31 11:32:56;;;;;;;1.50;0.90;;;22.10;98.20;;;;;;4986300;28;20584;-79
2023/07/31 11:35:23;;;;;;;1.60;1.20;;;22.10;98.20;;;;;;4983743;28;20821;-80
2023/07/31 11:37:50;;;;;;;1.50;0.90;;;22.10;98.20;;;;;;4970847;28;20489;-79
2023/07/31 11:40:17;;;;;;;1.50;0.90;;;22.10;98.20;;;;;;4979844;28;20564;-78
2023/07/31 11:42:45;;;;;;;1.50;0.90;;;22.20;98.20;;;;;;4982584;28;20488;-78
2023/07/31 11:45:13;;;;;;;1.50;0.83;;;22.20;98.20;;;;;;4977032;28;20474;-79
2023/07/31 11:47:40;;;;;;;1.50;0.90;;;22.20;98.20;;;;;;4980945;28;20497;-78
2023/07/31 11:50:11;;;;;;;1.50;0.90;;;22.20;98.20;;;;;;4981259;28;20465;-79
2023/07/31 11:52:43;;;;;;;1.50;0.90;;;22.20;98.20;;;;;;4981873;28;21014;-78
2023/07/31 11:55:10;;;;;;;1.50;0.90;;;22.10;98.20;;;;;;4978839;28;20461;-78
2023/07/31 11:57:40;;;;;;;1.50;0.90;;;22.10;98.20;;;;;;4969744;28;20504;-79
2023/07/31 12:00:10;;;;;;;1.50;0.90;;;22.00;98.20;;;;;;4982354;28;20469;-78
2023/07/31 12:02:39;;;;;;;1.50;0.90;;;21.90;98.20;;;;;;4987374;28;20492;-79
2023/07/31 12:05:07;;;;;;;1.50;0.90;;;21.80;98.20;;;;;;4985262;28;20457;-78
2023/07/31 12:07:48;;;;;;;1.50;0.90;;;21.80;98.20;;;;;;4987454;28;20529;-79
2023/07/31 12:10:26;;;;;;;1.50;0.87;;;21.70;98.20;;;;;;4990265;28;20934;-77
2023/07/31 12:13:04;;;;;;;1.50;0.90;;;21.60;98.20;;;;;;4976406;28;20492;-79
2023/07/31 12:15:35;;;;;;;1.50;0.90;;;21.50;98.20;;;;;;4986979;28;20496;-80
2023/07/31 12:18:08;;;;;;;1.50;0.90;;;21.50;98.20;;;;;;4992145;28;20890;-79
2023/07/31 12:20:35;;;;;;;1.50;0.90;;;21.50;98.20;;;;;;4990892;28;21069;-81
2023/07/31 12:23:02;;;;;;;1.50;0.90;;;21.60;98.20;;;;;;4980487;28;20493;-81
2023/07/31 12:25:34;;;;;;;1.50;0.90;;;21.70;98.20;;;;;;4994575;28;20561;-79
2023/07/31 12:28:07;;;;;;;1.50;0.90;;;21.90;98.20;;;;;;4986848;28;21038;-79
2023/07/31 12:30:35;;;;;;;1.50;0.90;;;22.00;98.20;;;;;;4982568;28;20467;-79
2023/07/31 12:33:06;;;;;;;1.50;0.80;;;22.10;98.20;;;;;;4991744;28;20615;-78
2023/07/31 12:35:41;;;;;;;1.50;0.90;;;22.10;98.20;;;;;;4987124;28;20522;-78
2023/07/31 12:38:08;;;;;;;1.50;0.90;;;22.10;98.20;;;;;;4992866;28;20488;-79
2023/07/31 12:40:38;;;;;;;1.50;0.90;;;22.10;98.20;;;;;;4991359;28;20460;-80
2023/07/31 12:43:05;;;;;;;1.50;0.90;;;22.10;98.20;;;;;;4990497;28;20870;-78
2023/07/31 12:45:32;;;;;;;1.50;0.90;;;22.00;98.20;;;;;;4991188;28;20472;-79
2023/07/31 12:47:59;;;;;;;1.50;0.90;;;21.90;98.20;;;;;;4990976;28;20481;-78
2023/07/31 12:50:28;;;;;;;1.50;0.90;;;22.00;98.20;;;;;;4989145;28;20473;-78
2023/07/31 12:52:55;;;;;;;1.50;0.90;;;22.10;98.20;;;;;;4986606;28;21226;-80
2023/07/31 12:55:22;;;;;;;1.50;0.90;;;22.10;98.20;;;;;;4983547;28;20463;-79
2023/07/31 12:57:49;;;;;;;1.50;0.90;;;22.10;98.20;;;;;;4986064;28;20674;-79
2023/07/31 13:00:21;;;;;;;1.50;0.90;;;22.20;98.20;;;;;;4986559;28;20935;-78
2023/07/31 13:02:47;;;;;;;1.50;0.90;;;22.20;98.20;;;;;;4988714;28;20490;-78